Time;durP1;ratioP1;P1;durP2;ratioP2;P2;SDS_P1;SDS_P2;PMS_P1;PMS_P2;Temp;Humidity;BMP_temperature;BMP_pressure;BME280_temperature;BME280_humidity;BME280_pressure;Samples;Min_cycle;Max_cycle;Signal;HPM_P1;HPM_P2
2023/12/02 00:01:38;;;;;;;;;;;;;;;;;;5028694;28;20058;-79
2023/12/02 00:04:04;;;;;;;;;;;;;;;;;;5026078;28;20008;-79
2023/12/02 00:06:30;;;;;;;;;;;;;;;;;;5025382;28;19920;-79
2023/12/02 00:08:56;;;;;;;;;;;;;;;;;;5025130;28;19921;-79
2023/12/02 00:11:22;;;;;;;;;;;;;;;;;;5025931;28;20746;-79
2023/12/02 00:13:48;;;;;;;;;;;;;;;;;;5026554;28;19917;-81
2023/12/02 00:16:14;;;;;;;;;;;;;;;;;;5030584;28;19951;-81
2023/12/02 00:18:40;;;;;;;;;;;;;;;;;;5024765;28;19920;-80
2023/12/02 00:21:06;;;;;;;;;;;;;;;;;;5023434;28;20048;-79
2023/12/02 00:23:32;;;;;;;;;;;;;;;;;;5023608;28;20764;-80
2023/12/02 00:25:58;;;;;;;;;;;;;;;;;;5024355;28;19939;-80
2023/12/02 00:28:24;;;;;;;;;;;;;;;;;;5021561;28;19921;-81
2023/12/02 00:30:50;;;;;;;;;;;;;;;;;;5004307;28;19927;-79
2023/12/02 00:33:16;;;;;;;;;;;;;;;;;;5020721;28;19939;-78
2023/12/02 00:35:42;;;;;;;;;;;;;;;;;;5047731;28;20566;-79
2023/12/02 00:38:08;;;;;;;;;;;;;;;;;;5027235;28;19924;-80
2023/12/02 00:40:34;;;;;;;;;;;;;;;;;;5030676;28;20633;-81
2023/12/02 00:43:00;;;;;;;;;;;;;;;;;;5026101;28;19917;-80
2023/12/02 00:45:26;;;;;;;;;;;;;;;;;;5027381;28;19925;-80
2023/12/02 00:47:52;;;;;;;;;;;;;;;;;;5024086;28;19921;-80
2023/12/02 00:50:18;;;;;;;;;;;;;;;;;;5028275;28;19971;-80
2023/12/02 00:52:44;;;;;;;;;;;;;;;;;;5029698;28;19956;-79
2023/12/02 00:55:10;;;;;;;;;;;;;;;;;;5042107;28;20578;-80
2023/12/02 00:57:36;;;;;;;;;;;;;;;;;;5027702;28;19947;-80
2023/12/02 01:00:03;;;;;;;;;;;;;;;;;;5026140;28;20757;-81
2023/12/02 01:02:29;;;;;;;;;;;;;;;;;;5028905;28;19960;-79
2023/12/02 01:04:55;;;;;;;;;;;;;;;;;;5027995;28;20011;-81
2023/12/02 01:07:21;;;;;;;;;;;;;;;;;;4999431;28;19956;-78
2023/12/02 01:09:47;;;;;;;;;;;;;;;;;;4993439;28;20031;-80
2023/12/02 01:12:13;;;;;;;;;;;;;;;;;;4992987;28;19944;-81
2023/12/02 01:14:39;;;;;;;;;;;;;;;;;;4999421;28;20015;-80
2023/12/02 01:17:05;;;;;;;;;;;;;;;;;;4987895;28;20571;-80
2023/12/02 01:19:31;;;;;;;;;;;;;;;;;;5001728;28;20020;-80
2023/12/02 01:21:57;;;;;;;;;;;;;;;;;;4991532;28;19998;-81
2023/12/02 01:24:23;;;;;;;;;;;;;;;;;;5011669;28;20533;-80
2023/12/02 01:26:49;;;;;;;;;;;;;;;;;;4992494;28;19925;-79
2023/12/02 01:29:15;;;;;;;;;;;;;;;;;;4997897;28;19917;-80
2023/12/02 01:31:41;;;;;;;;;;;;;;;;;;4996861;28;20772;-80
2023/12/02 01:34:07;;;;;;;;;;;;;;;;;;4996401;28;19943;-79
2023/12/02 01:36:33;;;;;;;;;;;;;;;;;;4998845;28;19921;-80
2023/12/02 01:38:59;;;;;;;;;;;;;;;;;;4989497;28;20599;-79
2023/12/02 01:41:25;;;;;;;;;;;;;;;;;;4999892;28;19928;-79
2023/12/02 01:43:51;;;;;;;;;;;;;;;;;;5015455;28;19916;-80
2023/12/02 01:46:17;;;;;;;;;;;;;;;;;;5032666;28;19956;-80
2023/12/02 01:48:43;;;;;;;;;;;;;;;;;;5032273;28;19917;-81
2023/12/02 01:51:08;;;;;;;;;;;;;;;;;;5028701;28;19917;-79
2023/12/02 01:53:34;;;;;;;;;;;;;;;;;;5034162;28;19924;-79
2023/12/02 01:56:00;;;;;;;;;;;;;;;;;;5029144;28;19923;-79
2023/12/02 01:58:26;;;;;;;;;;;;;;;;;;5028568;28;19956;-80
2023/12/02 02:00:52;;;;;;;;;;;;;;;;;;5024715;28;19992;-79
2023/12/02 02:03:18;;;;;;;;;;;;;;;;;;5029145;28;20359;-79
2023/12/02 02:05:44;;;;;;;;;;;;;;;;;;5024815;28;19920;-78
2023/12/02 02:08:10;;;;;;;;;;;;;;;;;;5027145;28;19973;-81
2023/12/02 02:10:36;;;;;;;;;;;;;;;;;;5029864;28;19932;-79
2023/12/02 02:13:02;;;;;;;;;;;;;;;;;;5023490;28;20011;-80
2023/12/02 02:15:28;;;;;;;;;;;;;;;;;;5026801;28;19917;-81
2023/12/02 02:17:54;;;;;;;;;;;;;;;;;;5027523;28;19921;-80
2023/12/02 02:20:20;;;;;;;;;;;;;;;;;;5028047;28;19947;-81
2023/12/02 02:22:46;;;;;;;;;;;;;;;;;;5025389;28;20375;-78
2023/12/02 02:25:12;;;;;;;;;;;;;;;;;;5032798;28;19917;-79
2023/12/02 02:27:38;;;;;;;;;;;;;;;;;;5033346;28;20120;-79
2023/12/02 02:30:04;;;;;;;;;;;;;;;;;;5028115;28;19960;-80
2023/12/02 02:32:29;;;;;;;;;;;;;;;;;;5028989;28;19923;-79
2023/12/02 02:34:55;;;;;;;;;;;;;;;;;;5026137;28;19974;-79
2023/12/02 02:37:21;;;;;;;;;;;;;;;;;;5034228;28;19916;-81
2023/12/02 02:39:47;;;;;;;;;;;;;;;;;;5031749;28;19925;-79
2023/12/02 02:42:13;;;;;;;;;;;;;;;;;;5035535;28;19923;-80
2023/12/02 02:44:39;;;;;;;;;;;;;;;;;;5034196;28;19923;-79
2023/12/02 02:47:05;;;;;;;;;;;;;;;;;;5029575;28;19924;-80
2023/12/02 02:49:31;;;;;;;;;;;;;;;;;;5032274;28;20348;-79
2023/12/02 02:51:57;;;;;;;;;;;;;;;;;;5027785;28;19928;-81
2023/12/02 02:54:23;;;;;;;;;;;;;;;;;;5032441;28;19917;-79
2023/12/02 02:56:49;;;;;;;;;;;;;;;;;;5025083;28;19987;-80
2023/12/02 02:59:16;;;;;;;;;;;;;;;;;;5029884;28;19920;-81
2023/12/02 03:01:42;;;;;;;;;;;;;;;;;;5031988;28;19917;-78
2023/12/02 03:04:08;;;;;;;;;;;;;;;;;;5029465;28;20407;-79
2023/12/02 03:06:34;;;;;;;;;;;;;;;;;;5034089;28;19982;-82
2023/12/02 03:09:00;;;;;;;;;;;;;;;;;;5030423;28;19912;-79
2023/12/02 03:11:26;;;;;;;;;;;;;;;;;;5035928;28;19917;-79
2023/12/02 03:13:52;;;;;;;;;;;;;;;;;;5028961;28;19918;-79
2023/12/02 03:16:18;;;;;;;;;;;;;;;;;;5029223;28;19921;-79
2023/12/02 03:18:44;;;;;;;;;;;;;;;;;;5030774;28;20602;-80
2023/12/02 03:21:10;;;;;;;;;;;;;;;;;;5048067;28;19925;-79
2023/12/02 03:23:36;;;;;;;;;;;;;;;;;;5032834;28;19998;-79
2023/12/02 03:26:01;;;;;;;;;;;;;;;;;;5030883;28;19923;-80
2023/12/02 03:28:27;;;;;;;;;;;;;;;;;;5026785;28;19944;-79
2023/12/02 03:30:53;;;;;;;;;;;;;;;;;;5026367;28;19916;-79
2023/12/02 03:33:19;;;;;;;;;;;;;;;;;;5031471;28;19939;-80
2023/12/02 03:35:45;;;;;;;;;;;;;;;;;;5030174;28;19966;-81
2023/12/02 03:38:11;;;;;;;;;;;;;;;;;;5028969;28;19917;-81
2023/12/02 03:40:37;;;;;;;;;;;;;;;;;;5036637;28;19960;-80
2023/12/02 03:43:03;;;;;;;;;;;;;;;;;;5043385;28;19916;-80
2023/12/02 03:45:29;;;;;;;;;;;;;;;;;;5030281;28;19924;-80
2023/12/02 03:47:55;;;;;;;;;;;;;;;;;;5028990;28;19921;-81
2023/12/02 03:50:21;;;;;;;;;;;;;;;;;;5029441;28;19916;-80
2023/12/02 03:52:47;;;;;;;;;;;;;;;;;;5028090;28;20549;-79
2023/12/02 03:55:13;;;;;;;;;;;;;;;;;;5028518;28;20750;-79
2023/12/02 03:57:39;;;;;;;;;;;;;;;;;;5032414;28;20718;-79
2023/12/02 04:00:11;;;;;;;;;;;;;;;;;;5023910;28;20015;-80
2023/12/02 04:02:36;;;;;;;;;;;;;;;;;;5025184;28;20505;-80
2023/12/02 04:05:03;;;;;;;;;;;;;;;;;;5029026;28;19925;-79
2023/12/02 04:07:28;;;;;;;;;;;;;;;;;;5029491;28;19924;-79
2023/12/02 04:09:54;;;;;;;;;;;;;;;;;;5030293;28;19978;-80
2023/12/02 04:12:20;;;;;;;;;;;;;;;;;;5032067;28;19917;-80
2023/12/02 04:14:46;;;;;;;;;;;;;;;;;;5029464;28;19917;-78
2023/12/02 04:17:12;;;;;;;;;;;;;;;;;;5034328;28;19924;-79
2023/12/02 04:19:38;;;;;;;;;;;;;;;;;;5032832;28;19928;-79
2023/12/02 04:22:04;;;;;;;;;;;;;;;;;;5026093;28;19927;-80
2023/12/02 04:24:30;;;;;;;;;;;;;;;;;;5031941;28;19921;-79
2023/12/02 04:26:56;;;;;;;;;;;;;;;;;;5029021;28;19917;-79
2023/12/02 04:29:22;;;;;;;;;;;;;;;;;;5035980;28;20395;-79
2023/12/02 04:31:48;;;;;;;;;;;;;;;;;;5035311;28;19923;-80
2023/12/02 04:34:14;;;;;;;;;;;;;;;;;;5037910;28;19916;-81
2023/12/02 04:36:40;;;;;;;;;;;;;;;;;;5037743;28;19917;-80
2023/12/02 04:39:11;;;;;;;;;;;;;;;;;;5032753;28;19932;-81
2023/12/02 04:41:37;;;;;;;;;;;;;;;;;;5034669;28;19924;-80
2023/12/02 04:44:03;;;;;;;;;;;;;;;;;;5031622;28;20031;-81
2023/12/02 04:46:29;;;;;;;;;;;;;;;;;;5034825;28;20016;-81
2023/12/02 04:48:55;;;;;;;;;;;;;;;;;;5034997;28;19924;-82
2023/12/02 04:51:21;;;;;;;;;;;;;;;;;;5033469;28;19944;-78
2023/12/02 04:53:47;;;;;;;;;;;;;;;;;;5032929;28;19960;-82
2023/12/02 04:56:13;;;;;;;;;;;;;;;;;;5046129;28;19924;-79
2023/12/02 04:58:39;;;;;;;;;;;;;;;;;;5040339;28;19917;-81
2023/12/02 05:01:05;;;;;;;;;;;;;;;;;;5031143;28;20237;-79
2023/12/02 05:03:31;;;;;;;;;;;;;;;;;;5049958;28;20793;-80
2023/12/02 05:05:56;;;;;;;;;;;;;;;;;;5032419;28;20358;-80
2023/12/02 05:08:22;;;;;;;;;;;;;;;;;;5033607;28;21229;-80
2023/12/02 05:10:48;;;;;;;;;;;;;;;;;;5030534;28;19938;-81
2023/12/02 05:13:15;;;;;;;;;;;;;;;;;;5031714;28;19917;-81
2023/12/02 05:15:41;;;;;;;;;;;;;;;;;;5032477;28;20023;-80
2023/12/02 05:18:06;;;;;;;;;;;;;;;;;;5031749;28;20015;-81
2023/12/02 05:20:34;;;;;;;;;;;;;;;;;;5029770;28;19920;-81
2023/12/02 05:23:00;;;;;;;;;;;;;;;;;;5044078;28;19921;-79
2023/12/02 05:25:26;;;;;;;;;;;;;;;;;;5031138;28;19927;-81
2023/12/02 05:27:52;;;;;;;;;;;;;;;;;;5025916;28;19928;-80
2023/12/02 05:30:18;;;;;;;;;;;;;;;;;;5028211;28;19924;-80
2023/12/02 05:32:44;;;;;;;;;;;;;;;;;;5023776;28;20398;-79
2023/12/02 05:35:13;;;;;;;;;;;;;;;;;;5026771;28;19946;-80
2023/12/02 05:37:38;;;;;;;;;;;;;;;;;;5029841;28;20048;-81
2023/12/02 05:40:04;;;;;;;;;;;;;;;;;;5028445;28;19929;-81
2023/12/02 05:42:30;;;;;;;;;;;;;;;;;;5031924;28;20686;-79
2023/12/02 05:44:56;;;;;;;;;;;;;;;;;;5028991;28;19920;-80
2023/12/02 05:47:22;;;;;;;;;;;;;;;;;;5034836;28;20392;-79
2023/12/02 05:49:48;;;;;;;;;;;;;;;;;;5029964;28;19931;-79
2023/12/02 05:52:14;;;;;;;;;;;;;;;;;;5033559;28;19928;-80
2023/12/02 05:54:40;;;;;;;;;;;;;;;;;;5034307;28;20470;-80
2023/12/02 05:57:06;;;;;;;;;;;;;;;;;;5029289;28;20359;-79
2023/12/02 05:59:32;;;;;;;;;;;;;;;;;;5032578;28;20618;-78
2023/12/02 06:01:58;;;;;;;;;;;;;;;;;;5027340;28;19939;-79
2023/12/02 06:04:24;;;;;;;;;;;;;;;;;;5027455;28;19923;-80
2023/12/02 06:06:50;;;;;;;;;;;;;;;;;;5025910;28;19917;-80
2023/12/02 06:09:16;;;;;;;;;;;;;;;;;;5028207;28;19928;-80
2023/12/02 06:11:43;;;;;;;;;;;;;;;;;;5027665;28;19983;-79
2023/12/02 06:14:09;;;;;;;;;;;;;;;;;;5030952;28;20529;-79
2023/12/02 06:16:35;;;;;;;;;;;;;;;;;;5035172;28;19932;-79
2023/12/02 06:19:02;;;;;;;;;;;;;;;;;;5029964;28;19920;-79
2023/12/02 06:21:28;;;;;;;;;;;;;;;;;;5031112;28;19916;-79
2023/12/02 06:23:54;;;;;;;;;;;;;;;;;;5031405;28;20357;-78
2023/12/02 06:26:20;;;;;;;;;;;;;;;;;;5032189;28;19956;-81
2023/12/02 06:28:49;;;;;;;;;;;;;;;;;;5029518;28;19920;-79
2023/12/02 06:31:15;;;;;;;;;;;;;;;;;;5030141;28;20415;-79
2023/12/02 06:33:41;;;;;;;;;;;;;;;;;;5031488;28;20785;-80
2023/12/02 06:36:08;;;;;;;;;;;;;;;;;;5028921;28;19917;-79
2023/12/02 06:38:36;;;;;;;;;;;;;;;;;;5032050;28;20019;-80
2023/12/02 06:41:01;;;;;;;;;;;;;;;;;;5026315;28;19936;-81
2023/12/02 06:43:27;;;;;;;;;;;;;;;;;;5030545;28;19916;-78
2023/12/02 06:45:53;;;;;;;;;;;;;;;;;;5029181;28;19917;-78
2023/12/02 06:48:19;;;;;;;;;;;;;;;;;;5032166;28;19925;-78
2023/12/02 06:50:45;;;;;;;;;;;;;;;;;;5036550;28;20293;-79
2023/12/02 06:53:15;;;;;;;;;;;;;;;;;;5039768;28;19960;-79
2023/12/02 06:55:41;;;;;;;;;;;;;;;;;;5036910;28;20010;-78
2023/12/02 06:58:07;;;;;;;;;;;;;;;;;;5041930;28;19917;-80
2023/12/02 07:00:33;;;;;;;;;;;;;;;;;;5041300;28;19928;-80
2023/12/02 07:02:59;;;;;;;;;;;;;;;;;;5033950;28;19923;-79
2023/12/02 07:05:26;;;;;;;;;;;;;;;;;;5038744;28;19974;-80
2023/12/02 07:07:51;;;;;;;;;;;;;;;;;;5034037;28;19916;-78
2023/12/02 07:10:18;;;;;;;;;;;;;;;;;;5034873;28;20628;-80
2023/12/02 07:12:44;;;;;;;;;;;;;;;;;;5030877;28;19989;-78
2023/12/02 07:15:10;;;;;;;;;;;;;;;;;;5047478;28;19920;-79
2023/12/02 07:17:36;;;;;;;;;;;;;;;;;;5033495;28;19972;-79
2023/12/02 07:20:02;;;;;;;;;;;;;;;;;;5031018;28;20355;-81
2023/12/02 07:22:28;;;;;;;;;;;;;;;;;;5030431;28;19952;-79
2023/12/02 07:24:54;;;;;;;;;;;;;;;;;;5033449;28;19920;-81
2023/12/02 07:27:20;;;;;;;;;;;;;;;;;;5033747;28;19959;-80
2023/12/02 07:29:46;;;;;;;;;;;;;;;;;;5029214;28;19925;-79
2023/12/02 07:32:12;;;;;;;;;;;;;;;;;;5037664;28;19917;-81
2023/12/02 07:34:39;;;;;;;;;;;;;;;;;;5037927;28;19952;-81
2023/12/02 07:37:05;;;;;;;;;;;;;;;;;;5032311;28;19928;-80
2023/12/02 07:39:31;;;;;;;;;;;;;;;;;;5033868;28;19925;-79
2023/12/02 07:41:57;;;;;;;;;;;;;;;;;;5024489;28;20443;-81
2023/12/02 07:44:24;;;;;;;;;;;;;;;;;;5031799;28;19913;-81
2023/12/02 07:46:50;;;;;;;;;;;;;;;;;;5031486;28;19927;-81
2023/12/02 07:49:16;;;;;;;;;;;;;;;;;;5037785;28;19913;-80
2023/12/02 07:51:42;;;;;;;;;;;;;;;;;;5030948;28;20478;-79
2023/12/02 07:54:08;;;;;;;;;;;;;;;;;;5029723;28;19917;-81
2023/12/02 07:56:36;;;;;;;;;;;;;;;;;;5034890;28;19931;-79
2023/12/02 07:59:02;;;;;;;;;;;;;;;;;;5033995;28;19927;-79
2023/12/02 08:01:28;;;;;;;;;;;;;;;;;;5030765;28;19987;-79
2023/12/02 08:03:53;;;;;;;;;;;;;;;;;;5032231;28;19920;-81
2023/12/02 08:06:19;;;;;;;;;;;;;;;;;;5029359;28;19943;-81
2023/12/02 08:08:47;;;;;;;;;;;;;;;;;;5032394;28;19917;-81
2023/12/02 08:11:13;;;;;;;;;;;;;;;;;;5030435;28;20035;-80
2023/12/02 08:13:39;;;;;;;;;;;;;;;;;;5033459;28;20353;-81
2023/12/02 08:16:05;;;;;;;;;;;;;;;;;;5027601;28;19929;-81
2023/12/02 08:18:31;;;;;;;;;;;;;;;;;;5033812;28;19923;-81
2023/12/02 08:20:56;;;;;;;;;;;;;;;;;;5028708;28;20075;-81
2023/12/02 08:23:22;;;;;;;;;;;;;;;;;;5032101;28;20033;-82
2023/12/02 08:25:48;;;;;;;;;;;;;;;;;;5030611;28;19917;-80
2023/12/02 08:28:14;;;;;;;;;;;;;;;;;;5032404;28;20393;-81
2023/12/02 08:30:40;;;;;;;;;;;;;;;;;;5028232;28;20722;-81
2023/12/02 08:33:06;;;;;;;;;;;;;;;;;;5040781;28;19924;-81
2023/12/02 08:35:33;;;;;;;;;;;;;;;;;;5025146;28;19916;-81
2023/12/02 08:37:59;;;;;;;;;;;;;;;;;;5031126;28;20385;-80
2023/12/02 08:40:25;;;;;;;;;;;;;;;;;;5031683;28;19924;-81
2023/12/02 08:42:51;;;;;;;;;;;;;;;;;;5027756;28;19924;-81
2023/12/02 08:45:17;;;;;;;;;;;;;;;;;;5029838;28;20023;-82
2023/12/02 08:47:43;;;;;;;;;;;;;;;;;;5033644;28;19974;-81
2023/12/02 08:50:08;;;;;;;;;;;;;;;;;;5030803;28;19975;-81
2023/12/02 08:52:34;;;;;;;;;;;;;;;;;;5033300;28;19917;-81
2023/12/02 08:55:00;;;;;;;;;;;;;;;;;;5031465;28;19916;-82
2023/12/02 08:57:26;;;;;;;;;;;;;;;;;;5035381;28;20596;-82
2023/12/02 08:59:52;;;;;;;;;;;;;;;;;;5027849;28;19928;-81
2023/12/02 09:02:19;;;;;;;;;;;;;;;;;;5035212;28;19948;-82
2023/12/02 09:04:45;;;;;;;;;;;;;;;;;;5027466;28;19924;-81
2023/12/02 09:07:11;;;;;;;;;;;;;;;;;;5035744;28;19917;-81
2023/12/02 09:09:37;;;;;;;;;;;;;;;;;;5025457;28;19929;-82
2023/12/02 09:12:03;;;;;;;;;;;;;;;;;;5024036;28;19970;-80
2023/12/02 09:14:29;;;;;;;;;;;;;;;;;;5028667;28;19921;-79
2023/12/02 09:16:55;;;;;;;;;;;;;;;;;;5032799;28;20016;-80
2023/12/02 09:19:21;;;;;;;;;;;;;;;;;;5032997;28;19924;-79
2023/12/02 09:21:49;;;;;;;;;;;;;;;;;;5034615;28;20205;-79
2023/12/02 09:24:15;;;;;;;;;;;;;;;;;;5036472;28;19917;-81
2023/12/02 09:26:41;;;;;;;;;;;;;;;;;;5033813;28;19974;-81
2023/12/02 09:29:07;;;;;;;;;;;;;;;;;;5034234;28;19963;-81
2023/12/02 09:31:33;;;;;;;;;;;;;;;;;;5033990;28;19921;-81
2023/12/02 09:33:59;;;;;;;;;;;;;;;;;;5027569;28;19927;-82
2023/12/02 09:36:24;;;;;;;;;;;;;;;;;;5034159;28;19966;-81
2023/12/02 09:38:50;;;;;;;;;;;;;;;;;;5030148;28;19966;-80
2023/12/02 09:41:17;;;;;;;;;;;;;;;;;;5034652;28;19916;-81
2023/12/02 09:43:43;;;;;;;;;;;;;;;;;;5033123;28;20504;-79
2023/12/02 09:46:09;;;;;;;;;;;;;;;;;;5032376;28;20444;-81
2023/12/02 09:48:35;;;;;;;;;;;;;;;;;;5027294;28;19924;-80
2023/12/02 09:51:01;;;;;;;;;;;;;;;;;;5028034;28;19921;-83
2023/12/02 09:53:27;;;;;;;;;;;;;;;;;;5029680;28;20010;-80
2023/12/02 09:55:53;;;;;;;;;;;;;;;;;;5028075;28;20053;-81
2023/12/02 09:58:21;;;;;;;;;;;;;;;;;;5030836;28;19952;-80
2023/12/02 10:00:47;;;;;;;;;;;;;;;;;;5027246;28;19925;-79
2023/12/02 10:03:13;;;;;;;;;;;;;;;;;;5026059;28;20763;-81
2023/12/02 10:05:39;;;;;;;;;;;;;;;;;;5031966;28;19917;-81
2023/12/02 10:08:05;;;;;;;;;;;;;;;;;;5040191;28;19932;-79
2023/12/02 10:10:31;;;;;;;;;;;;;;;;;;5026793;28;19917;-79
2023/12/02 10:12:57;;;;;;;;;;;;;;;;;;5027539;28;19917;-81
2023/12/02 10:15:23;;;;;;;;;;;;;;;;;;5031268;28;19917;-80
2023/12/02 10:17:52;;;;;;;;;;;;;;;;;;5025668;28;19925;-78
2023/12/02 10:20:18;;;;;;;;;;;;;;;;;;5029870;28;19927;-81
2023/12/02 10:22:44;;;;;;;;;;;;;;;;;;5028235;28;19925;-80
2023/12/02 10:25:10;;;;;;;;;;;;;;;;;;5030472;28;19917;-79
2023/12/02 10:27:36;;;;;;;;;;;;;;;;;;5034544;28;19923;-80
2023/12/02 10:30:03;;;;;;;;;;;;;;;;;;5026307;28;20396;-80
2023/12/02 10:32:30;;;;;;;;;;;;;;;;;;5035003;28;19978;-79
2023/12/02 10:34:56;;;;;;;;;;;;;;;;;;5020341;28;19917;-80
2023/12/02 10:37:22;;;;;;;;;;;;;;;;;;5027851;28;19920;-80
2023/12/02 10:39:48;;;;;;;;;;;;;;;;;;5026654;28;19921;-79
2023/12/02 10:42:14;;;;;;;;;;;;;;;;;;5025166;28;20011;-79
2023/12/02 10:44:40;;;;;;;;;;;;;;;;;;5026948;28;19917;-79
2023/12/02 10:47:06;;;;;;;;;;;;;;;;;;5029888;28;19928;-78
2023/12/02 10:49:32;;;;;;;;;;;;;;;;;;5029566;28;20007;-79
2023/12/02 10:51:58;;;;;;;;;;;;;;;;;;5027464;28;20442;-80
2023/12/02 10:54:24;;;;;;;;;;;;;;;;;;5031382;28;19920;-78
2023/12/02 10:56:50;;;;;;;;;;;;;;;;;;5031270;28;20255;-78
2023/12/02 10:59:16;;;;;;;;;;;;;;;;;;5030211;28;19920;-79
2023/12/02 11:01:43;;;;;;;;;;;;;;;;;;5035275;28;19924;-80
2023/12/02 11:04:09;;;;;;;;;;;;;;;;;;5031258;28;19913;-79
2023/12/02 11:06:35;;;;;;;;;;;;;;;;;;5037398;28;19927;-79
2023/12/02 11:09:01;;;;;;;;;;;;;;;;;;5028510;28;19956;-77
2023/12/02 11:11:26;;;;;;;;;;;;;;;;;;5033381;28;19941;-77
2023/12/02 11:13:52;;;;;;;;;;;;;;;;;;5027588;28;19917;-80
2023/12/02 11:16:20;;;;;;;;;;;;;;;;;;5030308;28;19917;-78
2023/12/02 11:18:45;;;;;;;;;;;;;;;;;;5028178;28;20435;-77
2023/12/02 11:21:12;;;;;;;;;;;;;;;;;;5028577;28;19977;-79
2023/12/02 11:23:38;;;;;;;;;;;;;;;;;;5036044;28;20678;-78
2023/12/02 11:26:04;;;;;;;;;;;;;;;;;;5029278;28;19917;-79
2023/12/02 11:28:29;;;;;;;;;;;;;;;;;;5034061;28;19945;-77
2023/12/02 11:30:55;;;;;;;;;;;;;;;;;;5027711;28;20000;-78
2023/12/02 11:33:21;;;;;;;;;;;;;;;;;;5025350;28;19967;-80
2023/12/02 11:35:47;;;;;;;;;;;;;;;;;;5029051;28;19952;-80
2023/12/02 11:38:13;;;;;;;;;;;;;;;;;;5033902;28;20473;-78
2023/12/02 11:40:40;;;;;;;;;;;;;;;;;;5033534;28;20004;-80
2023/12/02 11:43:06;;;;;;;;;;;;;;;;;;5028680;28;20030;-80
2023/12/02 11:45:32;;;;;;;;;;;;;;;;;;5032589;28;20035;-78
2023/12/02 11:47:58;;;;;;;;;;;;;;;;;;5023721;28;20161;-79
2023/12/02 11:50:23;;;;;;;;;;;;;;;;;;5033509;28;20480;-80
2023/12/02 11:52:49;;;;;;;;;;;;;;;;;;5027047;28;20559;-79
2023/12/02 11:55:16;;;;;;;;;;;;;;;;;;5030861;28;19916;-78
2023/12/02 11:57:42;;;;;;;;;;;;;;;;;;5030430;28;20387;-77
2023/12/02 12:00:09;;;;;;;;;;;;;;;;;;5027634;28;19971;-80
2023/12/02 12:02:35;;;;;;;;;;;;;;;;;;5034923;28;19939;-79
2023/12/02 12:05:01;;;;;;;;;;;;;;;;;;5052612;28;19916;-78
2023/12/02 12:07:27;;;;;;;;;;;;;;;;;;5037706;28;20510;-78
2023/12/02 12:09:53;;;;;;;;;;;;;;;;;;5034220;28;19940;-80
2023/12/02 12:12:19;;;;;;;;;;;;;;;;;;5035330;28;19927;-78
2023/12/02 12:14:45;;;;;;;;;;;;;;;;;;5034029;28;20020;-79
2023/12/02 12:17:10;;;;;;;;;;;;;;;;;;5037489;28;19967;-79
2023/12/02 12:19:37;;;;;;;;;;;;;;;;;;5034129;28;19921;-79
2023/12/02 12:22:03;;;;;;;;;;;;;;;;;;5028776;28;20027;-79
2023/12/02 12:24:29;;;;;;;;;;;;;;;;;;5041369;28;19917;-79
2023/12/02 12:26:55;;;;;;;;;;;;;;;;;;5035167;28;20003;-79
2023/12/02 12:29:21;;;;;;;;;;;;;;;;;;5043973;28;19917;-80
2023/12/02 12:31:47;;;;;;;;;;;;;;;;;;5045462;28;19924;-80
2023/12/02 12:34:13;;;;;;;;;;;;;;;;;;5044754;28;19943;-80
2023/12/02 12:36:39;;;;;;;;;;;;;;;;;;5040507;28;19999;-80
2023/12/02 12:39:05;;;;;;;;;;;;;;;;;;5036693;28;20018;-79
2023/12/02 12:41:31;;;;;;;;;;;;;;;;;;5036743;28;19924;-78
2023/12/02 12:43:57;;;;;;;;;;;;;;;;;;5034545;28;19917;-79
2023/12/02 12:46:23;;;;;;;;;;;;;;;;;;5032589;28;19927;-79
2023/12/02 12:48:49;;;;;;;;;;;;;;;;;;5028273;28;19925;-79
2023/12/02 12:51:15;;;;;;;;;;;;;;;;;;5031218;28;19917;-78
2023/12/02 12:53:41;;;;;;;;;;;;;;;;;;5035271;28;19928;-80
2023/12/02 12:56:07;;;;;;;;;;;;;;;;;;5031623;28;19916;-78
2023/12/02 12:58:33;;;;;;;;;;;;;;;;;;5032006;28;19917;-78
2023/12/02 13:00:59;;;;;;;;;;;;;;;;;;5032739;28;20045;-81
2023/12/02 13:03:25;;;;;;;;;;;;;;;;;;5033552;28;19935;-80
2023/12/02 13:05:51;;;;;;;;;;;;;;;;;;5029607;28;19921;-80
2023/12/02 13:08:17;;;;;;;;;;;;;;;;;;5033783;28;19928;-79
2023/12/02 13:10:44;;;;;;;;;;;;;;;;;;5032437;28;19923;-79
2023/12/02 13:13:10;;;;;;;;;;;;;;;;;;5028744;28;19916;-78
2023/12/02 13:15:36;;;;;;;;;;;;;;;;;;5029055;28;20517;-78
2023/12/02 13:18:02;;;;;;;;;;;;;;;;;;5033421;28;19925;-81
2023/12/02 13:20:28;;;;;;;;;;;;;;;;;;5030448;28;19921;-78
2023/12/02 13:22:54;;;;;;;;;;;;;;;;;;5022664;28;20559;-79
2023/12/02 13:25:20;;;;;;;;;;;;;;;;;;5029759;28;20645;-80
2023/12/02 13:27:46;;;;;;;;;;;;;;;;;;5032016;28;19927;-79
2023/12/02 13:30:12;;;;;;;;;;;;;;;;;;5028439;28;19917;-80
2023/12/02 13:32:38;;;;;;;;;;;;;;;;;;5024452;28;19920;-80
2023/12/02 13:35:04;;;;;;;;;;;;;;;;;;5026058;28;20539;-80
2023/12/02 13:37:30;;;;;;;;;;;;;;;;;;5031724;28;19917;-78
2023/12/02 13:39:56;;;;;;;;;;;;;;;;;;5031333;28;19917;-78
2023/12/02 13:42:22;;;;;;;;;;;;;;;;;;5032441;28;19924;-80
2023/12/02 13:44:48;;;;;;;;;;;;;;;;;;5032147;28;20750;-79
2023/12/02 13:47:14;;;;;;;;;;;;;;;;;;5028475;28;19917;-78
2023/12/02 13:49:40;;;;;;;;;;;;;;;;;;5031371;28;19977;-78
2023/12/02 13:52:06;;;;;;;;;;;;;;;;;;5025248;28;19928;-77
2023/12/02 13:54:32;;;;;;;;;;;;;;;;;;5029438;28;20480;-80
2023/12/02 13:56:59;;;;;;;;;;;;;;;;;;5029936;28;19983;-79
2023/12/02 13:59:25;;;;;;;;;;;;;;;;;;5030549;28;19921;-80
2023/12/02 14:01:51;;;;;;;;;;;;;;;;;;5030336;28;20595;-79
2023/12/02 14:04:17;;;;;;;;;;;;;;;;;;5028734;28;20248;-80
2023/12/02 14:06:43;;;;;;;;;;;;;;;;;;5030960;28;20394;-79
2023/12/02 14:09:09;;;;;;;;;;;;;;;;;;5023330;28;19917;-78
2023/12/02 14:11:35;;;;;;;;;;;;;;;;;;5030939;28;20024;-81
2023/12/02 14:14:01;;;;;;;;;;;;;;;;;;5030296;28;20392;-78
2023/12/02 14:16:27;;;;;;;;;;;;;;;;;;5027975;28;19921;-79
2023/12/02 14:18:52;;;;;;;;;;;;;;;;;;5027822;28;19924;-80
2023/12/02 14:21:18;;;;;;;;;;;;;;;;;;5028521;28;19921;-78
2023/12/02 14:23:44;;;;;;;;;;;;;;;;;;5026466;28;20524;-78
2023/12/02 14:26:10;;;;;;;;;;;;;;;;;;5030912;28;19948;-79
2023/12/02 14:28:36;;;;;;;;;;;;;;;;;;5030124;28;20007;-80
2023/12/02 14:31:04;;;;;;;;;;;;;;;;;;5040288;28;19917;-79
2023/12/02 14:33:29;;;;;;;;;;;;;;;;;;5031978;28;19948;-78
2023/12/02 14:35:56;;;;;;;;;;;;;;;;;;5032827;28;20008;-80
2023/12/02 14:38:22;;;;;;;;;;;;;;;;;;5036406;28;19920;-78
2023/12/02 14:40:48;;;;;;;;;;;;;;;;;;5037608;28;20516;-77
2023/12/02 14:43:14;;;;;;;;;;;;;;;;;;5033892;28;20581;-80
2023/12/02 14:45:40;;;;;;;;;;;;;;;;;;5036632;28;19917;-79
2023/12/02 14:48:06;;;;;;;;;;;;;;;;;;5032543;28;19925;-80
2023/12/02 14:50:32;;;;;;;;;;;;;;;;;;5028779;28;19994;-80
2023/12/02 14:52:57;;;;;;;;;;;;;;;;;;5033288;28;19924;-80
2023/12/02 14:55:23;;;;;;;;;;;;;;;;;;5037664;28;19916;-79
2023/12/02 14:57:49;;;;;;;;;;;;;;;;;;5031467;28;19928;-79
2023/12/02 15:00:15;;;;;;;;;;;;;;;;;;5038198;28;19927;-80
2023/12/02 15:02:44;;;;;;;;;;;;;;;;;;5036512;28;19927;-80
2023/12/02 15:05:10;;;;;;;;;;;;;;;;;;5031112;28;19917;-80
2023/12/02 15:07:36;;;;;;;;;;;;;;;;;;5049835;28;20352;-80
2023/12/02 15:10:03;;;;;;;;;;;;;;;;;;5030591;28;19917;-81
2023/12/02 15:12:29;;;;;;;;;;;;;;;;;;5033530;28;19959;-81
2023/12/02 15:14:55;;;;;;;;;;;;;;;;;;5030543;28;19999;-81
2023/12/02 15:17:21;;;;;;;;;;;;;;;;;;5032845;28;19957;-79
2023/12/02 15:19:47;;;;;;;;;;;;;;;;;;5026383;28;20061;-80
2023/12/02 15:22:17;;;;;;;;;;;;;;;;;;5028190;28;20036;-80
2023/12/02 15:24:43;;;;;;;;;;;;;;;;;;5029489;28;19917;-77
2023/12/02 15:27:09;;;;;;;;;;;;;;;;;;5034077;28;19927;-80
2023/12/02 15:29:35;;;;;;;;;;;;;;;;;;5028366;28;19951;-78
2023/12/02 15:32:01;;;;;;;;;;;;;;;;;;5028899;28;19928;-80
2023/12/02 15:34:27;;;;;;;;;;;;;;;;;;5033298;28;20387;-79
2023/12/02 15:36:53;;;;;;;;;;;;;;;;;;5028396;28;19913;-78
2023/12/02 15:39:19;;;;;;;;;;;;;;;;;;5029890;28;19970;-79
2023/12/02 15:41:45;;;;;;;;;;;;;;;;;;5030836;28;19920;-78
2023/12/02 15:44:11;;;;;;;;;;;;;;;;;;5025076;28;19917;-79
2023/12/02 15:46:38;;;;;;;;;;;;;;;;;;5032547;28;19932;-80
2023/12/02 15:49:04;;;;;;;;;;;;;;;;;;5027150;28;23970;-81
2023/12/02 15:51:31;;;;;;;;;;;;;;;;;;5031550;28;19928;-80
2023/12/02 15:53:57;;;;;;;;;;;;;;;;;;5029343;28;19917;-81
2023/12/02 15:56:23;;;;;;;;;;;;;;;;;;5038973;28;20545;-81
2023/12/02 15:58:52;;;;;;;;;;;;;;;;;;5036324;28;20379;-82
2023/12/02 16:01:18;;;;;;;;;;;;;;;;;;5034989;28;20006;-79
2023/12/02 16:03:44;;;;;;;;;;;;;;;;;;5035210;28;20019;-79
2023/12/02 16:06:10;;;;;;;;;;;;;;;;;;5030095;28;20647;-81
2023/12/02 16:08:37;;;;;;;;;;;;;;;;;;5039417;28;20473;-79
2023/12/02 16:11:03;;;;;;;;;;;;;;;;;;5032932;28;19932;-81
2023/12/02 16:13:32;;;;;;;;;;;;;;;;;;5040517;28;19926;-80
2023/12/02 16:15:58;;;;;;;;;;;;;;;;;;5043019;28;20309;-79
2023/12/02 16:18:24;;;;;;;;;;;;;;;;;;5031958;28;19917;-79
2023/12/02 16:20:50;;;;;;;;;;;;;;;;;;5032997;28;20055;-79
2023/12/02 16:23:16;;;;;;;;;;;;;;;;;;5031707;28;20015;-78
2023/12/02 16:25:42;;;;;;;;;;;;;;;;;;5033707;28;19974;-80
2023/12/02 16:28:08;;;;;;;;;;;;;;;;;;5037091;28;19916;-80
2023/12/02 16:30:34;;;;;;;;;;;;;;;;;;5038775;28;19924;-81
2023/12/02 16:33:01;;;;;;;;;;;;;;;;;;5035562;28;19917;-80
2023/12/02 16:35:27;;;;;;;;;;;;;;;;;;5034359;28;19955;-81
2023/12/02 16:37:53;;;;;;;;;;;;;;;;;;5034798;28;19999;-81